Arthur, Nebraska
Current Conditions -  °F | °C
As of 1:55 AM on Saturday 01 Nov 2014 (Local Time) from KOGA Reporting Station
Clear Clear  
Wind Chill: 25°   Ceiling: Unl
Heat Index: 32°   Visibility: 10mi
Dew Point: 17°   Wind: 8mph
Humidity: 55%   Direction: 130°SE
Pressure: 30.13"   Gusts: NA
Location:  41.57°N, 101.69°W
Report Text: KOGA 010755Z AUTO 13007KT 10SM CLR 00/M08 A3013 RMK AO2 T00001082
Loading
Personal Weather Stations






























Interactive Weather Map
Tropical Storm Tracking
New forecast layout! Learn more

10-Day Weather Forecast

Advertisements
Track Severe Weather on mobile